createdAt,value
2023-02-22T00:00:06.577Z,1325.00
2023-02-22T00:01:06.569Z,1305.00
2023-02-22T00:02:06.598Z,1311.00
2023-02-22T00:03:06.563Z,1302.00
2023-02-22T00:04:06.529Z,1294.00
2023-02-22T00:05:06.521Z,1316.00
2023-02-22T00:06:06.523Z,1296.00
2023-02-22T00:07:06.484Z,1302.00
2023-02-22T00:08:06.469Z,1304.00
2023-02-22T00:09:06.468Z,1290.00
2023-02-22T00:10:06.456Z,1301.00
2023-02-22T00:11:06.445Z,1298.00
2023-02-22T00:12:06.440Z,1301.00
2023-02-22T00:13:06.418Z,1295.00
2023-02-22T00:14:06.417Z,1279.00
2023-02-22T00:15:06.424Z,1295.00
2023-02-22T00:16:06.526Z,1275.00
2023-02-22T00:17:06.420Z,1283.00
2023-02-22T00:18:06.424Z,1286.00
2023-02-22T00:19:06.397Z,1280.00
2023-02-22T00:20:06.407Z,1289.00
2023-02-22T00:21:06.399Z,1284.00
2023-02-22T00:22:06.378Z,1280.00
2023-02-22T00:23:06.369Z,1285.00
2023-02-22T00:24:06.375Z,1286.00
2023-02-22T00:25:06.353Z,1281.00
2023-02-22T00:26:06.380Z,1281.00
2023-02-22T00:27:06.341Z,1284.00
2023-02-22T00:28:06.301Z,1290.00
2023-02-22T00:29:06.308Z,1284.00
2023-02-22T00:30:06.348Z,1262.00
2023-02-22T00:31:06.322Z,1261.00
2023-02-22T00:32:06.312Z,1287.00
2023-02-22T00:33:06.291Z,1287.00
2023-02-22T00:34:06.272Z,1287.00
2023-02-22T00:35:06.245Z,1276.00
2023-02-22T00:36:06.262Z,1273.00
2023-02-22T00:37:06.244Z,1286.00
2023-02-22T00:38:06.236Z,1298.00
2023-02-22T00:39:06.219Z,1266.00
2023-02-22T00:40:06.201Z,1256.00
2023-02-22T00:41:06.208Z,1260.00
2023-02-22T00:42:06.171Z,1256.00
2023-02-22T00:43:06.184Z,1264.00
2023-02-22T00:44:06.149Z,1270.00
2023-02-22T00:45:06.152Z,1289.00
2023-02-22T00:46:06.256Z,1259.00
2023-02-22T00:47:06.118Z,1262.00
2023-02-22T00:48:06.115Z,1252.00
2023-02-22T00:49:06.110Z,1264.00
2023-02-22T00:50:06.091Z,1249.00
2023-02-22T00:51:06.073Z,1260.00
2023-02-22T00:52:06.067Z,1257.00
2023-02-22T00:53:06.080Z,1260.00
2023-02-22T00:54:06.054Z,1250.00
2023-02-22T00:55:06.050Z,1248.00
2023-02-22T00:56:06.012Z,1245.00
2023-02-22T00:57:06.010Z,1263.00
2023-02-22T00:58:05.991Z,1247.00
2023-02-22T00:59:05.978Z,1264.00
2023-02-22T01:00:05.982Z,1241.00
2023-02-22T01:01:05.962Z,1247.00
2023-02-22T01:02:05.971Z,1249.00
2023-02-22T01:03:05.975Z,1238.00
2023-02-22T01:04:05.916Z,1225.00
2023-02-22T01:05:05.924Z,1229.00
2023-02-22T01:06:05.889Z,1232.00
2023-02-22T01:07:05.901Z,1273.00
2023-02-22T01:08:05.870Z,1256.00
2023-02-22T01:09:05.859Z,1246.00
2023-02-22T01:10:05.845Z,1231.00
2023-02-22T01:11:05.836Z,1234.00
2023-02-22T01:12:05.818Z,1229.00
2023-02-22T01:13:05.806Z,1230.00
2023-02-22T01:14:05.784Z,1239.00
2023-02-22T01:15:05.786Z,1241.00
2023-02-22T01:16:05.752Z,1240.00
2023-02-22T01:17:05.765Z,1223.00
2023-02-22T01:18:05.718Z,1223.00
2023-02-22T01:19:05.703Z,1231.00
2023-02-22T01:20:05.678Z,1224.00
2023-02-22T01:21:05.664Z,1233.00
2023-02-22T01:22:05.696Z,1260.00
2023-02-22T01:23:05.645Z,1239.00
2023-02-22T01:24:05.647Z,1239.00
2023-02-22T01:25:05.621Z,1240.00
2023-02-22T01:26:05.617Z,1242.00
2023-02-22T01:27:05.613Z,1240.00
2023-02-22T01:28:05.591Z,1238.00
2023-02-22T01:29:05.570Z,1242.00
2023-02-22T01:30:05.589Z,1212.00
2023-02-22T01:31:05.596Z,1213.00
2023-02-22T01:32:05.598Z,1217.00
2023-02-22T01:33:05.533Z,1236.00
2023-02-22T01:34:05.526Z,1237.00
2023-02-22T01:35:05.513Z,1227.00
2023-02-22T01:36:05.494Z,1226.00
2023-02-22T01:37:05.517Z,1226.00
2023-02-22T01:38:05.475Z,1242.00
2023-02-22T01:39:05.493Z,1205.00
2023-02-22T01:40:05.467Z,1258.00
2023-02-22T01:41:05.433Z,1231.00
2023-02-22T01:42:05.435Z,1200.00
2023-02-22T01:43:05.458Z,1226.00
2023-02-22T01:44:05.435Z,1207.00
2023-02-22T01:45:05.424Z,1209.00
2023-02-22T01:46:05.467Z,1227.00
2023-02-22T01:47:05.404Z,1215.00
2023-02-22T01:48:05.402Z,1208.00
2023-02-22T01:49:05.387Z,1206.00
2023-02-22T01:50:05.385Z,1217.00
2023-02-22T01:51:05.360Z,1196.00
2023-02-22T01:52:05.361Z,1199.00
2023-02-22T01:53:05.372Z,1224.00
2023-02-22T01:54:05.335Z,1203.00
2023-02-22T01:55:05.330Z,1195.00
2023-02-22T01:56:05.311Z,1202.00
2023-02-22T01:57:05.295Z,1198.00
2023-02-22T01:58:05.321Z,1201.00
2023-02-22T01:59:05.267Z,1192.00
2023-02-22T02:00:05.274Z,1189.00
2023-02-22T02:01:05.258Z,1195.00
2023-02-22T02:02:05.245Z,1213.00
2023-02-22T02:03:05.249Z,1179.00
2023-02-22T02:04:05.255Z,1206.00
2023-02-22T02:05:05.329Z,1181.00
2023-02-22T02:06:05.189Z,1196.00
2023-02-22T02:07:05.192Z,1172.00
2023-02-22T02:08:05.201Z,1187.00
2023-02-22T02:09:05.184Z,1172.00
2023-02-22T02:10:05.161Z,1180.00
2023-02-22T02:11:05.218Z,1170.00
2023-02-22T02:12:05.151Z,1176.00
2023-02-22T02:13:05.171Z,1184.00
2023-02-22T02:14:05.156Z,1153.00
2023-02-22T02:15:05.132Z,1178.00
2023-02-22T02:16:05.131Z,1174.00
2023-02-22T02:17:05.239Z,1176.00
2023-02-22T02:18:05.145Z,1186.00
2023-02-22T02:19:05.101Z,1165.00
2023-02-22T02:20:05.101Z,1167.00
2023-02-22T02:21:05.086Z,1188.00
2023-02-22T02:22:05.087Z,1168.00
2023-02-22T02:23:05.096Z,1180.00
2023-02-22T02:24:05.083Z,1163.00
2023-02-22T02:25:05.090Z,1161.00
2023-02-22T02:26:05.074Z,1197.00
2023-02-22T02:27:05.040Z,1158.00
2023-02-22T02:28:05.045Z,1155.00
2023-02-22T02:29:05.049Z,1171.00
2023-02-22T02:30:05.030Z,1157.00
2023-02-22T02:31:05.026Z,1169.00
2023-02-22T02:32:05.090Z,1153.00
2023-02-22T02:33:04.987Z,1163.00
2023-02-22T02:34:04.992Z,1157.00
2023-02-22T02:35:04.984Z,1167.00
2023-02-22T02:36:04.970Z,1148.00
2023-02-22T02:37:04.976Z,1139.00
2023-02-22T02:38:04.948Z,1140.00
2023-02-22T02:39:04.967Z,1149.00
2023-02-22T02:40:04.978Z,1126.00
2023-02-22T02:41:04.935Z,1117.00
2023-02-22T02:42:04.901Z,1031.00
2023-02-22T02:43:04.925Z,863.00
2023-02-22T02:44:04.899Z,808.00
2023-02-22T02:45:04.858Z,696.00
2023-02-22T02:46:04.874Z,647.00
2023-02-22T02:47:04.935Z,598.00
2023-02-22T02:48:04.873Z,566.00
2023-02-22T02:49:04.841Z,536.00
2023-02-22T02:50:04.841Z,510.00
2023-02-22T02:51:04.795Z,503.00
2023-02-22T02:52:04.769Z,508.00
2023-02-22T02:53:04.775Z,497.00
2023-02-22T02:54:04.763Z,497.00
2023-02-22T02:55:04.747Z,502.00
2023-02-22T02:56:04.713Z,511.00
2023-02-22T02:57:04.704Z,486.00
2023-02-22T02:58:04.711Z,473.00
2023-02-22T02:59:04.688Z,456.00
2023-02-22T03:00:04.690Z,440.00
2023-02-22T03:01:04.666Z,432.00
2023-02-22T03:02:04.667Z,457.00
2023-02-22T03:03:04.662Z,496.00
2023-02-22T03:04:04.677Z,510.00
2023-02-22T03:05:04.639Z,509.00
2023-02-22T03:06:04.636Z,508.00
2023-02-22T03:07:04.648Z,507.00
2023-02-22T03:08:04.609Z,500.00
2023-02-22T03:09:04.622Z,503.00
2023-02-22T03:10:04.605Z,503.00
2023-02-22T03:11:04.604Z,495.00
2023-02-22T03:12:04.581Z,505.00
2023-02-22T03:13:04.576Z,505.00
2023-02-22T03:14:04.579Z,502.00
2023-02-22T03:15:04.550Z,501.00
2023-02-22T03:16:04.634Z,506.00
2023-02-22T03:17:04.548Z,500.00
2023-02-22T03:18:04.554Z,510.00
2023-02-22T03:19:04.560Z,515.00
2023-02-22T03:20:04.525Z,533.00
2023-02-22T03:21:04.534Z,524.00
2023-02-22T03:22:04.526Z,527.00
2023-02-22T03:23:04.506Z,514.00
2023-02-22T03:24:04.507Z,502.00
2023-02-22T03:25:04.501Z,504.00
2023-02-22T03:26:04.488Z,503.00
2023-02-22T03:27:04.485Z,500.00
2023-02-22T03:28:04.484Z,500.00
2023-02-22T03:29:04.525Z,494.00
2023-02-22T03:30:04.475Z,509.00
2023-02-22T03:31:04.565Z,510.00
2023-02-22T03:32:04.471Z,530.00
2023-02-22T03:33:04.447Z,526.00
2023-02-22T03:34:04.502Z,517.00
2023-02-22T03:35:04.460Z,503.00
2023-02-22T03:36:04.458Z,504.00
2023-02-22T03:37:04.443Z,502.00
2023-02-22T03:38:04.449Z,500.00
2023-02-22T03:39:04.463Z,502.00
2023-02-22T03:40:04.463Z,505.00
2023-02-22T03:41:04.470Z,504.00
2023-02-22T03:42:04.448Z,500.00
2023-02-22T03:43:04.461Z,503.00
2023-02-22T03:44:04.453Z,502.00
2023-02-22T03:45:04.476Z,491.00
2023-02-22T03:46:04.470Z,491.00
2023-02-22T03:47:04.480Z,496.00
2023-02-22T03:48:04.448Z,490.00
2023-02-22T03:49:04.455Z,505.00
2023-02-22T03:50:04.453Z,500.00
2023-02-22T03:51:04.501Z,501.00
2023-02-22T03:52:04.477Z,500.00
2023-02-22T03:53:04.457Z,507.00
2023-02-22T03:54:04.445Z,515.00
2023-02-22T03:55:04.453Z,507.00
2023-02-22T03:56:04.457Z,504.00
2023-02-22T03:57:04.451Z,502.00
2023-02-22T03:58:04.432Z,506.00
2023-02-22T03:59:04.432Z,502.00
2023-02-22T04:00:04.455Z,507.00
2023-02-22T04:01:04.459Z,509.00
2023-02-22T04:02:04.421Z,509.00
2023-02-22T04:03:04.473Z,509.00
2023-02-22T04:04:04.436Z,509.00
2023-02-22T04:05:04.446Z,511.00
2023-02-22T04:06:04.416Z,514.00
2023-02-22T04:07:04.384Z,527.00
2023-02-22T04:08:05.132Z,542.00
2023-02-22T04:09:04.442Z,555.00
2023-02-22T04:10:04.397Z,561.00
2023-02-22T04:11:04.380Z,583.00
2023-02-22T04:12:04.364Z,586.00
2023-02-22T04:13:04.372Z,589.00
2023-02-22T04:14:04.346Z,603.00
2023-02-22T04:15:04.376Z,617.00
2023-02-22T04:16:04.357Z,583.00
2023-02-22T04:17:04.337Z,575.00
2023-02-22T04:18:04.333Z,554.00
2023-02-22T04:19:04.339Z,552.00
2023-02-22T04:20:04.332Z,562.00
2023-02-22T04:21:04.336Z,560.00
2023-02-22T04:22:04.298Z,569.00
2023-02-22T04:23:04.321Z,561.00
2023-02-22T04:24:04.270Z,569.00
2023-02-22T04:25:04.287Z,584.00
2023-02-22T04:26:04.283Z,576.00
2023-02-22T04:27:04.241Z,555.00
2023-02-22T04:28:04.238Z,564.00
2023-02-22T04:29:04.267Z,572.00
2023-02-22T04:30:04.255Z,576.00
2023-02-22T04:31:04.327Z,548.00
2023-02-22T04:32:04.260Z,514.00
2023-02-22T04:33:04.213Z,509.00
2023-02-22T04:34:04.214Z,501.00
2023-02-22T04:35:04.215Z,513.00
2023-02-22T04:36:04.233Z,504.00
2023-02-22T04:37:04.197Z,500.00
2023-02-22T04:38:04.220Z,500.00
2023-02-22T04:39:04.174Z,502.00
2023-02-22T04:40:04.178Z,508.00
2023-02-22T04:41:04.173Z,521.00
2023-02-22T04:42:04.187Z,540.00
2023-02-22T04:43:04.188Z,558.00
2023-02-22T04:44:04.176Z,571.00
2023-02-22T04:45:04.188Z,570.00
2023-02-22T04:46:04.184Z,569.00
2023-02-22T04:47:04.179Z,575.00
2023-02-22T04:48:04.189Z,572.00
2023-02-22T04:49:04.159Z,583.00
2023-02-22T04:50:04.144Z,589.00
2023-02-22T04:51:04.207Z,587.00
2023-02-22T04:52:04.135Z,587.00
2023-02-22T04:53:04.143Z,584.00
2023-02-22T04:54:04.142Z,584.00
2023-02-22T04:55:04.129Z,602.00
2023-02-22T04:56:04.118Z,625.00
2023-02-22T04:57:04.114Z,620.00
2023-02-22T04:58:04.084Z,632.00
2023-02-22T04:59:04.098Z,619.00
2023-02-22T05:00:04.095Z,623.00
2023-02-22T05:01:04.099Z,617.00
2023-02-22T05:02:04.091Z,611.00
2023-02-22T05:03:04.076Z,604.00
2023-02-22T05:04:04.083Z,604.00
2023-02-22T05:05:04.114Z,607.00
2023-02-22T05:06:04.122Z,615.00
2023-02-22T05:07:04.091Z,631.00
2023-02-22T05:08:04.082Z,636.00
2023-02-22T05:09:04.073Z,633.00
2023-02-22T05:10:04.107Z,604.00
2023-02-22T05:11:04.100Z,617.00
2023-02-22T05:12:04.060Z,620.00
2023-02-22T05:13:04.341Z,559.00
2023-02-22T05:14:04.060Z,540.00
2023-02-22T05:15:04.060Z,527.00
2023-02-22T05:16:04.127Z,538.00
2023-02-22T05:17:04.039Z,553.00
2023-02-22T05:18:04.035Z,559.00
2023-02-22T05:19:04.003Z,564.00
2023-02-22T05:20:04.014Z,571.00
2023-02-22T05:21:04.018Z,605.00
2023-02-22T05:22:04.011Z,653.00
2023-02-22T05:23:04.007Z,605.00
2023-02-22T05:24:03.984Z,443.00
2023-02-22T05:25:03.986Z,400.00
2023-02-22T05:26:03.989Z,400.00
2023-02-22T05:27:04.027Z,400.00
2023-02-22T05:28:03.999Z,400.00
2023-02-22T07:22:04.804Z,4318.00
2023-02-22T07:23:04.822Z,4289.00
2023-02-22T07:24:05.588Z,4346.00
2023-02-22T07:25:04.861Z,4378.00
2023-02-22T07:26:04.818Z,4415.00
2023-02-22T07:27:04.811Z,4397.00
2023-02-22T07:28:04.792Z,4443.00
2023-02-22T07:29:04.786Z,4420.00
2023-02-22T07:30:04.840Z,4421.00
2023-02-22T07:31:04.757Z,4427.00
2023-02-22T07:32:04.731Z,4437.00
2023-02-22T07:33:04.766Z,4495.00
2023-02-22T07:34:04.683Z,4517.00
2023-02-22T07:35:04.662Z,4426.00
2023-02-22T07:36:04.632Z,4448.00
2023-02-22T07:37:04.626Z,4489.00
2023-02-22T07:38:04.682Z,4542.00
2023-02-22T07:39:04.589Z,4620.00
2023-02-22T07:40:04.567Z,4618.00
2023-02-22T07:41:04.544Z,4600.00
2023-02-22T07:42:04.518Z,4658.00
2023-02-22T07:43:06.844Z,4659.00
2023-02-22T07:44:04.705Z,4662.00
2023-02-22T07:45:04.702Z,4630.00
2023-02-22T07:46:04.751Z,4617.00
2023-02-22T07:47:04.643Z,4595.00
2023-02-22T07:48:04.639Z,4630.00
2023-02-22T07:49:04.615Z,4627.00
2023-02-22T07:50:04.616Z,4611.00
2023-02-22T07:51:04.567Z,4631.00
2023-02-22T07:52:04.573Z,4629.00
2023-02-22T07:53:04.549Z,4641.00
2023-02-22T07:54:04.528Z,4711.00
2023-02-22T07:55:04.513Z,4718.00
2023-02-22T07:56:04.470Z,4719.00
2023-02-22T07:57:04.440Z,4716.00
2023-02-22T07:58:04.452Z,4705.00
2023-02-22T07:59:04.400Z,4717.00
2023-02-22T08:00:04.410Z,4677.00
2023-02-22T08:01:04.375Z,4704.00
2023-02-22T08:02:04.339Z,4728.00
2023-02-22T08:03:04.335Z,4727.00
2023-02-22T08:04:04.324Z,4728.00
2023-02-22T08:06:04.251Z,4731.00
2023-02-22T08:07:04.234Z,4741.00
2023-02-22T08:08:04.206Z,4735.00
2023-02-22T08:09:04.171Z,4730.00
2023-02-22T08:10:04.165Z,4711.00
2023-02-22T08:11:04.126Z,4698.00
2023-02-22T08:12:04.098Z,4725.00
2023-02-22T08:13:04.104Z,4689.00
2023-02-22T08:14:04.073Z,4654.00
2023-02-22T08:15:04.078Z,4651.00
2023-02-22T08:16:04.032Z,4653.00
2023-02-22T08:17:04.076Z,4644.00
2023-02-22T08:18:04.004Z,4650.00
2023-02-22T08:19:03.980Z,4601.00
2023-02-22T08:20:03.983Z,4633.00
2023-02-22T08:21:03.953Z,4656.00
2023-02-22T08:22:03.987Z,4632.00
2023-02-22T08:23:03.919Z,4598.00
2023-02-22T08:25:03.941Z,4590.00
2023-02-22T08:26:03.926Z,4601.00
2023-02-22T08:27:03.840Z,4612.00
2023-02-22T08:28:03.881Z,4589.00
2023-02-22T08:29:03.837Z,4571.00
2023-02-22T08:30:03.883Z,4592.00
2023-02-22T08:31:03.830Z,4597.00
2023-02-22T08:32:03.939Z,4603.00
2023-02-22T08:33:03.997Z,4425.00
2023-02-22T08:34:03.732Z,4354.00
2023-02-22T08:35:03.725Z,4126.00
2023-02-22T08:36:03.755Z,3924.00
2023-02-22T08:37:03.739Z,3795.00
2023-02-22T08:38:03.964Z,3647.00
2023-02-22T08:39:03.653Z,3415.00
2023-02-22T08:40:03.717Z,3264.00
2023-02-22T08:41:03.686Z,3187.00
2023-02-22T08:42:03.622Z,3037.00
2023-02-22T08:43:03.597Z,2882.00
2023-02-22T08:44:04.628Z,2729.00
2023-02-22T08:45:03.728Z,2710.00
2023-02-22T08:46:04.341Z,2712.00
2023-02-22T08:47:03.731Z,2643.00
2023-02-22T08:48:03.550Z,2667.00
2023-02-22T08:49:03.590Z,2587.00
2023-02-22T08:50:03.576Z,2529.00
2023-02-22T08:51:03.577Z,2382.00
2023-02-22T08:52:03.607Z,2338.00
2023-02-22T08:53:03.604Z,2306.00
2023-02-22T08:54:03.539Z,2219.00
2023-02-22T08:55:03.564Z,2183.00
2023-02-22T08:56:03.658Z,2230.00
2023-02-22T08:57:03.560Z,2242.00
2023-02-22T08:58:03.593Z,2182.00
2023-02-22T08:59:03.566Z,2244.00
2023-02-22T09:00:03.574Z,2151.00
2023-02-22T09:01:03.580Z,2159.00
2023-02-22T09:02:03.604Z,2168.00
2023-02-22T09:03:03.565Z,2167.00
2023-02-22T09:04:03.550Z,2124.00
2023-02-22T09:05:03.563Z,2161.00
2023-02-22T09:06:03.647Z,2179.00
2023-02-22T09:07:03.549Z,2034.00
2023-02-22T09:08:03.563Z,2072.00
2023-02-22T09:09:03.897Z,1966.00
2023-02-22T09:10:04.249Z,1925.00
2023-02-22T09:11:03.977Z,1916.00
2023-02-22T09:12:03.553Z,1867.00
2023-02-22T09:13:03.545Z,1863.00
2023-02-22T09:14:03.583Z,1926.00
2023-02-22T09:15:03.563Z,1793.00
2023-02-22T09:16:03.592Z,1790.00
2023-02-22T09:17:05.639Z,1720.00
2023-02-22T09:18:03.581Z,1620.00
2023-02-22T09:19:03.572Z,1667.00
2023-02-22T09:20:03.636Z,1665.00
2023-02-22T09:21:03.625Z,1549.00
2023-02-22T09:22:03.613Z,1549.00
2023-02-22T09:23:03.597Z,1416.00
2023-02-22T09:24:03.622Z,1405.00
2023-02-22T09:25:15.849Z,1440.00
2023-02-22T09:26:04.633Z,1345.00
2023-02-22T09:27:03.653Z,1361.00
2023-02-22T09:28:03.650Z,1405.00
2023-02-22T09:29:03.665Z,1372.00
2023-02-22T09:30:03.631Z,1347.00
2023-02-22T09:31:03.673Z,1075.00
2023-02-22T09:32:03.849Z,1095.00
2023-02-22T09:33:03.838Z,1008.00
2023-02-22T09:34:04.351Z,1020.00
2023-02-22T09:35:03.676Z,1123.00
2023-02-22T09:36:03.703Z,1058.00
2023-02-22T09:37:03.702Z,963.00
2023-02-22T09:38:03.710Z,963.00
2023-02-22T09:39:03.719Z,923.00
2023-02-22T09:40:03.761Z,963.00
2023-02-22T09:41:03.732Z,950.00
2023-02-22T09:42:03.724Z,877.00
2023-02-22T09:43:03.767Z,796.00
2023-02-22T09:44:03.760Z,756.00
2023-02-22T09:45:03.721Z,736.00
2023-02-22T09:46:03.802Z,821.00
2023-02-22T09:47:03.774Z,1015.00
2023-02-22T09:48:19.428Z,955.00
2023-02-22T09:49:04.732Z,958.00
2023-02-22T09:50:03.761Z,982.00
2023-02-22T09:51:04.491Z,1023.00
2023-02-22T09:52:03.771Z,1005.00
2023-02-22T09:53:03.714Z,1272.00
2023-02-22T09:54:03.716Z,1365.00
2023-02-22T09:55:03.724Z,1188.00
2023-02-22T09:56:03.736Z,1040.00
2023-02-22T09:57:03.745Z,767.00
2023-02-22T09:58:03.732Z,677.00
2023-02-22T09:59:03.715Z,596.00
2023-02-22T10:00:03.738Z,604.00
2023-02-22T10:01:03.709Z,566.00
2023-02-22T10:02:03.786Z,533.00
2023-02-22T10:03:03.716Z,498.00
2023-02-22T10:04:04.368Z,503.00
2023-02-22T10:05:03.765Z,528.00
2023-02-22T10:06:03.698Z,554.00
2023-02-22T10:07:03.791Z,612.00
2023-02-22T10:08:03.703Z,635.00
2023-02-22T10:09:03.719Z,649.00
2023-02-22T10:10:03.694Z,624.00
2023-02-22T10:11:03.717Z,607.00
2023-02-22T10:12:03.713Z,614.00
2023-02-22T10:13:03.700Z,642.00
2023-02-22T10:14:03.698Z,641.00
2023-02-22T10:15:03.697Z,630.00
2023-02-22T10:16:03.709Z,623.00
2023-02-22T10:17:03.760Z,624.00
2023-02-22T10:18:03.714Z,649.00
2023-02-22T10:19:03.751Z,576.00
2023-02-22T10:20:03.726Z,563.00
2023-02-22T10:21:03.732Z,629.00
2023-02-22T10:22:03.766Z,590.00
2023-02-22T10:23:03.743Z,600.00
2023-02-22T10:24:03.748Z,561.00
2023-02-22T10:25:03.813Z,547.00
2023-02-22T10:26:03.755Z,509.00
2023-02-22T10:27:03.779Z,508.00
2023-02-22T10:28:03.894Z,579.00
2023-02-22T10:29:03.786Z,651.00
2023-02-22T10:30:12.708Z,767.00
2023-02-22T10:31:04.986Z,775.00
2023-02-22T10:32:03.868Z,817.00
2023-02-22T10:33:03.798Z,966.00
2023-02-22T10:34:03.777Z,1257.00
2023-02-22T10:35:03.782Z,1732.00
2023-02-22T10:36:03.764Z,1928.00
2023-02-22T10:37:03.796Z,2068.00
2023-02-22T10:38:03.755Z,2049.00
2023-02-22T10:39:03.749Z,2077.00
2023-02-22T10:40:03.774Z,2252.00
2023-02-22T10:41:03.812Z,2276.00
2023-02-22T10:42:03.756Z,2316.00
2023-02-22T10:43:03.723Z,2539.00
2023-02-22T10:44:03.756Z,2614.00
2023-02-22T10:45:03.764Z,2730.00
2023-02-22T10:46:03.739Z,2684.00
2023-02-22T10:47:03.709Z,2834.00
2023-02-22T10:48:03.705Z,2933.00
2023-02-22T10:49:03.703Z,2936.00
2023-02-22T10:50:03.667Z,2950.00
2023-02-22T10:51:03.695Z,2978.00
2023-02-22T10:52:03.707Z,3001.00
2023-02-22T10:53:03.680Z,3052.00
2023-02-22T10:54:03.658Z,2939.00
2023-02-22T10:55:14.964Z,2941.00
2023-02-22T10:56:04.660Z,2939.00
2023-02-22T10:57:03.627Z,2940.00
2023-02-22T10:58:03.608Z,2976.00
2023-02-22T10:59:03.593Z,3043.00
2023-02-22T11:00:03.575Z,3145.00
2023-02-22T11:01:03.579Z,3320.00
2023-02-22T11:02:03.580Z,2948.00
2023-02-22T11:03:03.601Z,2998.00
2023-02-22T11:04:03.542Z,3102.00
2023-02-22T11:05:03.567Z,3251.00
2023-02-22T11:06:05.209Z,3449.00
2023-02-22T11:07:03.517Z,3514.00
2023-02-22T11:08:03.593Z,3530.00
2023-02-22T11:09:03.514Z,3526.00
2023-02-22T11:10:03.508Z,3564.00
2023-02-22T11:11:03.487Z,3564.00
2023-02-22T11:12:03.478Z,3570.00
2023-02-22T11:13:03.476Z,3577.00
2023-02-22T11:14:03.448Z,3587.00
2023-02-22T11:15:03.477Z,3660.00
2023-02-22T11:16:03.474Z,3617.00
2023-02-22T11:17:03.442Z,3665.00
2023-02-22T11:18:03.434Z,3640.00
2023-02-22T11:19:03.440Z,3681.00
2023-02-22T11:20:03.417Z,3673.00
2023-02-22T11:21:03.412Z,3664.00
2023-02-22T11:22:03.405Z,3691.00
2023-02-22T11:23:03.418Z,3679.00
2023-02-22T11:24:03.389Z,3673.00
2023-02-22T11:25:03.369Z,3674.00
2023-02-22T11:26:03.351Z,3742.00
2023-02-22T11:27:03.356Z,3740.00
2023-02-22T11:28:03.353Z,3698.00
2023-02-22T11:29:03.338Z,3760.00
2023-02-22T11:30:05.619Z,3776.00
2023-02-22T11:31:03.465Z,3784.00
2023-02-22T11:32:03.406Z,3791.00
2023-02-22T11:33:03.401Z,3807.00
2023-02-22T11:34:03.385Z,3817.00
2023-02-22T11:35:09.128Z,3844.00
2023-02-22T11:36:04.356Z,3835.00
2023-02-22T11:37:03.318Z,3846.00
2023-02-22T11:38:03.324Z,3858.00
2023-02-22T11:39:03.328Z,3858.00
2023-02-22T11:40:03.309Z,3882.00
2023-02-22T11:41:03.333Z,3889.00
2023-02-22T11:42:03.307Z,3859.00
2023-02-22T11:43:03.293Z,3874.00
2023-02-22T11:44:03.285Z,3879.00
2023-02-22T11:45:03.273Z,3914.00
2023-02-22T11:46:03.306Z,3895.00
2023-02-22T11:47:03.252Z,3915.00
2023-02-22T11:48:03.274Z,3921.00
2023-02-22T11:49:03.295Z,3939.00
2023-02-22T11:50:03.243Z,3937.00
2023-02-22T11:51:03.232Z,3907.00
2023-02-22T11:52:03.231Z,3933.00
2023-02-22T11:53:03.221Z,3936.00
2023-02-22T12:10:03.094Z,3930.00
2023-02-22T14:08:02.070Z,3435.00
2023-02-22T14:09:02.061Z,3420.00
2023-02-22T14:10:02.030Z,3429.00
2023-02-22T14:11:02.065Z,3419.00
2023-02-22T14:12:02.035Z,3419.00
2023-02-22T14:13:02.000Z,3420.00
2023-02-22T14:14:02.004Z,3420.00
2023-02-22T14:15:01.994Z,3413.00
2023-02-22T14:16:02.057Z,3428.00
2023-02-22T14:17:01.957Z,3421.00
2023-02-22T14:18:01.984Z,3417.00
2023-02-22T14:19:01.919Z,3405.00
2023-02-22T14:20:02.018Z,3418.00
2023-02-22T14:21:01.925Z,3431.00
2023-02-22T14:22:01.948Z,3436.00
2023-02-22T14:23:01.937Z,3480.00
2023-02-22T14:24:01.851Z,3480.00
2023-02-22T14:25:01.836Z,3484.00
2023-02-22T14:26:01.817Z,3500.00
2023-02-22T14:27:01.775Z,3513.00
2023-02-22T14:28:01.792Z,3520.00
2023-02-22T14:29:01.763Z,3534.00
2023-02-22T14:30:01.739Z,3524.00
2023-02-22T14:31:01.793Z,3534.00
2023-02-22T14:32:01.755Z,3548.00
2023-02-22T14:33:01.714Z,3554.00
2023-02-22T14:34:01.663Z,3570.00
2023-02-22T14:35:01.669Z,3571.00
2023-02-22T14:36:01.723Z,3574.00
2023-02-22T14:37:01.644Z,3580.00
2023-02-22T14:38:01.634Z,3572.00
2023-02-22T14:39:01.593Z,3572.00
2023-02-22T14:40:01.593Z,3578.00
2023-02-22T14:41:01.565Z,3591.00
2023-02-22T14:42:01.654Z,3572.00
2023-02-22T14:43:01.520Z,3584.00
2023-02-22T14:44:01.659Z,3596.00
2023-02-22T14:45:01.525Z,3626.00
2023-02-22T14:47:49.542Z,500.00
2023-02-22T14:48:49.413Z,500.00
2023-02-22T14:49:49.413Z,500.00
2023-02-22T14:50:49.385Z,500.00
2023-02-22T14:51:49.353Z,500.00
2023-02-22T14:52:49.300Z,503.00
2023-02-22T14:53:49.295Z,503.00
2023-02-22T14:54:49.242Z,500.00
2023-02-22T14:55:49.229Z,500.00
2023-02-22T14:56:49.220Z,501.00
2023-02-22T14:57:51.174Z,500.00
2023-02-22T14:58:49.130Z,502.00
2023-02-22T14:59:49.256Z,504.00
2023-02-22T15:00:49.059Z,506.00
2023-02-22T15:02:02.264Z,507.00
2023-02-22T15:02:50.049Z,507.00
2023-02-22T15:03:53.657Z,507.00
2023-02-22T15:04:49.955Z,507.00
2023-02-22T15:05:48.905Z,507.00
2023-02-22T15:06:48.856Z,507.00
2023-02-22T15:07:48.890Z,508.00
2023-02-22T15:08:49.050Z,501.00
2023-02-22T15:09:48.752Z,507.00
2023-02-22T15:10:48.710Z,507.00
2023-02-22T15:11:48.692Z,505.00
2023-02-22T15:12:48.647Z,503.00
2023-02-22T15:13:48.621Z,501.00
2023-02-22T15:14:48.566Z,500.00
2023-02-22T15:15:49.653Z,503.00
2023-02-22T15:16:48.484Z,500.00
2023-02-22T15:17:48.465Z,508.00
2023-02-22T15:18:48.409Z,501.00
2023-02-22T15:19:48.412Z,501.00
2023-02-22T15:20:48.485Z,501.00
2023-02-22T15:21:48.294Z,505.00
2023-02-22T15:22:48.269Z,507.00
2023-02-22T15:23:48.895Z,500.00
2023-02-22T15:24:48.188Z,502.00
2023-02-22T15:25:48.167Z,506.00
2023-02-22T15:27:00.856Z,504.00
2023-02-22T15:27:49.118Z,504.00
2023-02-22T15:28:48.081Z,504.00
2023-02-22T15:29:48.034Z,500.00
2023-02-22T15:30:48.000Z,482.00
2023-02-22T15:31:48.622Z,482.00
2023-02-22T15:33:03.195Z,507.00
2023-02-22T15:33:48.916Z,507.00
2023-02-22T15:34:47.878Z,501.00
2023-02-22T15:35:47.869Z,504.00
2023-02-22T15:36:47.806Z,492.00
2023-02-22T15:37:47.882Z,490.00
2023-02-22T15:38:47.765Z,500.00
2023-02-22T15:39:47.857Z,499.00
2023-02-22T15:40:47.727Z,503.00
2023-02-22T15:41:47.660Z,501.00
2023-02-22T15:42:47.662Z,503.00
2023-02-22T15:43:47.621Z,503.00
2023-02-22T15:44:47.575Z,502.00
2023-02-22T15:45:47.602Z,500.00
2023-02-22T15:46:47.502Z,506.00
2023-02-22T15:47:47.504Z,508.00
2023-02-22T15:48:47.459Z,502.00
2023-02-22T15:49:47.434Z,508.00
2023-02-22T15:50:47.403Z,513.00
2023-02-22T15:51:47.365Z,518.00
2023-02-22T15:52:47.358Z,515.00
2023-02-22T15:53:47.330Z,524.00
2023-02-22T15:54:47.263Z,525.00
2023-02-22T15:55:47.247Z,528.00
2023-02-22T15:56:47.202Z,528.00
2023-02-22T15:57:47.170Z,529.00
2023-02-22T15:58:47.206Z,520.00
2023-02-22T15:59:47.124Z,526.00
2023-02-22T16:00:47.126Z,531.00
2023-02-22T16:01:47.148Z,530.00
2023-02-22T16:02:47.021Z,529.00
2023-02-22T16:03:47.011Z,534.00
2023-02-22T16:04:59.053Z,537.00
2023-02-22T16:05:47.930Z,537.00
2023-02-22T16:06:46.898Z,537.00
2023-02-22T16:07:46.889Z,538.00
2023-02-22T16:08:54.752Z,540.00
2023-02-22T16:09:47.805Z,538.00
2023-02-22T16:10:46.784Z,539.00
2023-02-22T16:11:46.754Z,543.00
2023-02-22T16:12:46.741Z,545.00
2023-02-22T16:13:46.739Z,546.00
2023-02-22T16:14:46.688Z,550.00
2023-02-22T16:15:46.638Z,551.00
2023-02-22T16:16:46.631Z,552.00
2023-02-22T16:18:00.930Z,553.00
2023-02-22T16:18:46.585Z,553.00
2023-02-22T16:19:46.512Z,554.00
2023-02-22T16:20:46.484Z,554.00
2023-02-22T16:21:46.466Z,554.00
2023-02-22T16:22:46.428Z,557.00
2023-02-22T16:23:46.411Z,554.00
2023-02-22T16:24:46.365Z,555.00